Eaton Rapids, MI (48827)

5:15 PM EDT on July 24, 2016 (GMT -0400)
Eaton Rapids | | Change Station

Elev 899 ft 42.52 °N, 84.65 °W | Updated 10 minutes ago

Clear
Clear
83.8 °F
Feels Like 94 °F
N
2.7
Wind Variable Wind from North

Today
High -- | Low -- °F
--% Chance of Precip.
Yesterday
High -- | Low -- °F
Precip. -- in
Pressure 29.88 in
Visibility 10.0 miles
Clouds Clear
Heat Index 94 °F
Dew Point 77 °F
Humidity 81%
Rainfall 0.97 in
Snow Depth Not available.
6:23 AM 9:06 PM
Waning Gibbous, 73% visible
METAR KFPK 242055Z AUTO 21011G18KT 180V240 10SM CLR 29/23 A2988 RMK AO2 T02900233
Pressure 29.88 in
Visibility 10.0 miles
Clouds Clear
Heat Index 94 °F
Dew Point 77 °F
Humidity 81%
Rainfall 0.97 in
Snow Depth Not available.
6:23 AM 9:06 PM
Waning Gibbous, 73% visible
METAR KFPK 242055Z AUTO 21011G18KT 180V240 10SM CLR 29/23 A2988 RMK AO2 T02900233

10-Day Weather Forecast

Almanac

Astronomy

Jul. 24, 2016 Rise Set
Actual Time
Civil Twilight
Nautical Twilight
Astronomical Twilight
Moon
Length of Visible Light
Length of Day
Tomorrow will be .
, % of the Moon is Illuminated

Today's Extremes

State Highs State Lows

Community

WunderPhotos

Upload Photos

1,927,191 photos uploaded!

WunderBlog® & News

Nearby

Air Quality

  Air Quality AQ Index Pollutant
Not available.

Snow Depth

Station Depth Elevation

Earthquake Activity

City Distance Mag. Time & Date
Minimum magnitude displayed is 2.5.

Coastal Water Temperatures

Place Temperature

Stations

Nearby Weather Stations

Station Location Temp. Windchill Dew Point Humidity Wind Precip. Elev Updated Type
                   

Watches & Warnings

There are currently no watches in effect.